createdAt,value
2023-02-27T00:01:23.615Z,9.80
2023-02-27T00:03:54.045Z,7.10
2023-02-27T00:06:22.869Z,6.37
2023-02-27T00:08:51.055Z,6.67
2023-02-27T00:11:23.356Z,8.57
2023-02-27T00:13:54.343Z,7.77
2023-02-27T00:16:24.058Z,9.30
2023-02-27T00:18:53.783Z,6.93
2023-02-27T00:21:22.138Z,8.60
2023-02-27T00:23:55.519Z,7.00
2023-02-27T00:26:23.758Z,6.67
2023-02-27T00:28:52.128Z,7.23
2023-02-27T00:31:21.122Z,6.33
2023-02-27T00:33:49.305Z,5.73
2023-02-27T00:36:19.251Z,8.20
2023-02-27T00:38:50.431Z,8.97
2023-02-27T00:41:19.607Z,6.20
2023-02-27T00:43:48.036Z,7.73
2023-02-27T00:46:16.592Z,5.63
2023-02-27T00:48:51.382Z,5.33
2023-02-27T00:51:22.006Z,7.00
2023-02-27T00:53:51.020Z,7.50
2023-02-27T00:56:20.022Z,7.90
2023-02-27T00:58:48.550Z,7.80
2023-02-27T01:01:19.334Z,7.27
2023-02-27T01:03:47.559Z,7.50
2023-02-27T01:06:15.862Z,7.50
2023-02-27T01:08:45.536Z,6.03
2023-02-27T01:11:13.689Z,5.40
2023-02-27T01:13:47.553Z,8.50
2023-02-27T01:16:16.017Z,5.07
2023-02-27T01:18:46.068Z,4.80
2023-02-27T01:21:14.260Z,7.77
2023-02-27T01:23:43.000Z,7.47
2023-02-27T01:26:15.327Z,5.97
2023-02-27T01:28:43.456Z,7.37
2023-02-27T01:31:14.230Z,5.97
2023-02-27T01:33:42.872Z,5.87
2023-02-27T01:36:11.535Z,5.27
2023-02-27T01:38:44.150Z,5.53
2023-02-27T01:41:14.861Z,5.30
2023-02-27T01:43:57.615Z,4.57
2023-02-27T01:46:26.198Z,3.93
2023-02-27T01:49:00.093Z,4.80
2023-02-27T01:51:33.533Z,5.07
2023-02-27T01:54:07.346Z,4.37
2023-02-27T01:56:37.381Z,5.03
2023-02-27T02:02:02.549Z,4.03
2023-02-27T02:04:33.731Z,5.17
2023-02-27T02:07:04.043Z,5.03
2023-02-27T02:09:35.760Z,4.70
2023-02-27T02:12:06.084Z,6.23
2023-02-27T02:14:34.409Z,4.27
2023-02-27T02:17:17.057Z,4.63
2023-02-27T02:20:02.536Z,5.40
2023-02-27T02:23:10.082Z,4.57
2023-02-27T02:26:10.687Z,5.27
2023-02-27T02:29:02.368Z,5.80
2023-02-27T02:32:11.455Z,4.80
2023-02-27T02:35:07.618Z,4.87
2023-02-27T02:38:07.436Z,4.93
2023-02-27T02:40:43.079Z,5.23
2023-02-27T02:43:17.063Z,6.07
2023-02-27T02:45:55.104Z,6.73
2023-02-27T02:48:29.311Z,5.30
2023-02-27T02:51:06.121Z,5.10
2023-02-27T02:53:44.048Z,6.53
2023-02-27T02:56:23.517Z,5.53
2023-02-27T02:59:00.882Z,7.97
2023-02-27T03:01:34.389Z,6.23
2023-02-27T03:04:08.584Z,6.93
2023-02-27T03:06:41.527Z,5.07
2023-02-27T03:09:17.519Z,7.43
2023-02-27T03:11:50.322Z,5.33
2023-02-27T03:14:25.860Z,10.20
2023-02-27T03:16:56.334Z,7.13
2023-02-27T03:19:31.090Z,7.93
2023-02-27T03:22:05.354Z,6.37
2023-02-27T03:24:38.064Z,5.90
2023-02-27T03:27:11.384Z,6.80
2023-02-27T03:29:46.925Z,7.50
2023-02-27T03:32:23.422Z,7.80
2023-02-27T03:34:52.157Z,6.97
2023-02-27T03:37:31.242Z,8.70
2023-02-27T03:40:07.608Z,6.93
2023-02-27T03:42:40.086Z,7.27
2023-02-27T03:45:15.992Z,6.23
2023-02-27T03:47:47.229Z,6.70
2023-02-27T03:50:17.077Z,10.83
2023-02-27T03:52:45.803Z,9.73
2023-02-27T03:55:22.073Z,7.50
2023-02-27T03:57:52.921Z,6.47
2023-02-27T04:00:24.113Z,6.70
2023-02-27T04:02:54.145Z,6.30
2023-02-27T04:05:26.535Z,6.93
2023-02-27T04:08:33.309Z,6.03
2023-02-27T04:11:20.498Z,8.03
2023-02-27T04:14:23.186Z,6.87
2023-02-27T04:17:07.412Z,7.40
2023-02-27T04:19:46.115Z,9.73
2023-02-27T04:22:25.176Z,5.97
2023-02-27T04:25:01.957Z,5.50
2023-02-27T04:27:37.262Z,5.47
2023-02-27T04:30:20.115Z,7.23
2023-02-27T04:32:55.439Z,4.47
2023-02-27T04:35:30.215Z,5.80
2023-02-27T04:38:04.148Z,6.47
2023-02-27T04:40:37.692Z,4.57
2023-02-27T04:43:09.116Z,5.63
2023-02-27T04:45:41.461Z,6.67
2023-02-27T04:48:18.309Z,5.13
2023-02-27T04:50:52.604Z,5.20
2023-02-27T04:53:25.103Z,4.17
2023-02-27T04:55:59.396Z,6.80
2023-02-27T04:58:32.495Z,5.33
2023-02-27T05:01:07.476Z,4.13
2023-02-27T05:03:39.783Z,6.57
2023-02-27T05:06:11.467Z,4.57
2023-02-27T05:08:48.442Z,7.03
2023-02-27T05:11:23.455Z,10.17
2023-02-27T05:13:56.159Z,5.90
2023-02-27T05:16:33.205Z,7.33
2023-02-27T05:19:03.131Z,9.23
2023-02-27T05:21:39.437Z,8.90
2023-02-27T05:24:15.308Z,4.17
2023-02-27T05:27:01.850Z,3.83
2023-02-27T05:29:34.895Z,2.97
2023-02-27T05:32:18.237Z,1.97
2023-02-27T05:34:52.331Z,5.33
2023-02-27T05:37:27.669Z,5.47
2023-02-27T05:39:55.838Z,3.37
2023-02-27T05:42:30.145Z,3.00
2023-02-27T05:45:01.699Z,5.67
2023-02-27T05:47:36.031Z,2.83
2023-02-27T05:50:10.191Z,5.03
2023-02-27T05:52:41.016Z,3.80
2023-02-27T05:55:19.312Z,2.37
2023-02-27T05:57:52.531Z,5.33
2023-02-27T06:00:27.353Z,2.07
2023-02-27T06:02:57.163Z,7.50
2023-02-27T06:05:28.411Z,1.20
2023-02-27T06:07:56.560Z,4.37
2023-02-27T06:10:25.999Z,3.97
2023-02-27T06:12:55.455Z,3.57
2023-02-27T06:15:23.604Z,3.80
2023-02-27T06:17:51.776Z,3.67
2023-02-27T06:20:21.578Z,20.70
2023-02-27T06:22:49.714Z,14.73
2023-02-27T06:25:17.922Z,2.33
2023-02-27T06:27:47.135Z,6.10
2023-02-27T06:30:16.175Z,2.17
2023-02-27T06:32:44.370Z,1.30
2023-02-27T06:35:12.909Z,2.20
2023-02-27T06:37:42.432Z,3.10
2023-02-27T06:40:12.598Z,2.90
2023-02-27T06:42:40.917Z,2.47
2023-02-27T06:45:10.534Z,2.73
2023-02-27T06:47:39.027Z,1.63
2023-02-27T06:50:07.961Z,4.70
2023-02-27T06:52:36.648Z,1.80
2023-02-27T06:55:08.160Z,1.80
2023-02-27T06:57:36.502Z,3.13
2023-02-27T07:00:07.043Z,1.37
2023-02-27T07:02:35.212Z,2.90
2023-02-27T07:05:08.099Z,2.57
2023-02-27T07:07:38.234Z,11.30
2023-02-27T07:10:13.362Z,2.30
2023-02-27T07:12:41.877Z,2.43
2023-02-27T07:15:11.147Z,1.53
2023-02-27T07:17:42.363Z,2.43
2023-02-27T07:20:13.147Z,3.53
2023-02-27T07:22:42.527Z,13.80
2023-02-27T07:25:12.848Z,4.13
2023-02-27T07:27:43.527Z,2.60
2023-02-27T07:30:13.063Z,2.03
2023-02-27T07:32:43.129Z,4.77
2023-02-27T07:35:11.949Z,2.60
2023-02-27T07:37:41.135Z,3.27
2023-02-27T07:40:12.202Z,3.10
2023-02-27T07:42:42.196Z,2.40
2023-02-27T07:45:11.153Z,3.50
2023-02-27T07:47:39.978Z,2.07
2023-02-27T07:50:10.148Z,2.03
2023-02-27T07:52:38.513Z,2.20
2023-02-27T07:55:07.984Z,1.23
2023-02-27T07:57:36.313Z,11.80
2023-02-27T08:00:07.810Z,4.50
2023-02-27T08:02:41.229Z,4.23
2023-02-27T08:05:09.957Z,2.00
2023-02-27T08:07:41.176Z,3.07
2023-02-27T08:10:10.294Z,1.10
2023-02-27T08:12:39.308Z,0.73
2023-02-27T08:15:10.897Z,2.57
2023-02-27T08:17:39.086Z,1.10
2023-02-27T08:20:11.439Z,1.93
2023-02-27T08:22:43.656Z,2.77
2023-02-27T08:25:12.379Z,1.40
2023-02-27T08:27:41.165Z,2.07
2023-02-27T08:30:13.926Z,2.33
2023-02-27T08:32:43.843Z,1.10
2023-02-27T08:35:12.067Z,1.17
2023-02-27T08:37:45.171Z,2.20
2023-02-27T08:40:13.783Z,12.13
2023-02-27T08:42:42.182Z,3.87
2023-02-27T08:45:13.251Z,2.93
2023-02-27T08:47:42.951Z,2.63
2023-02-27T08:50:15.179Z,1.53
2023-02-27T08:52:44.194Z,2.40
2023-02-27T08:55:16.558Z,2.37
2023-02-27T08:57:46.160Z,7.07
2023-02-27T09:00:17.895Z,2.13
2023-02-27T09:02:47.253Z,1.83
2023-02-27T09:05:15.843Z,3.13
2023-02-27T09:07:45.181Z,1.63
2023-02-27T09:10:14.032Z,3.33
2023-02-27T09:12:44.266Z,4.03
2023-02-27T09:15:13.221Z,2.20
2023-02-27T09:17:43.183Z,2.60
2023-02-27T09:20:15.858Z,1.67
2023-02-27T09:22:44.185Z,2.37
2023-02-27T09:25:13.258Z,2.53
2023-02-27T09:27:41.984Z,3.43
2023-02-27T09:30:12.849Z,1.60
2023-02-27T09:32:44.240Z,1.23
2023-02-27T09:35:13.753Z,2.47
2023-02-27T09:37:42.166Z,3.03
2023-02-27T09:40:20.204Z,5.83
2023-02-27T09:42:49.428Z,3.33
2023-02-27T09:45:24.199Z,3.47
2023-02-27T09:47:57.348Z,1.10
2023-02-27T09:50:37.270Z,1.70
2023-02-27T09:53:07.501Z,2.07
2023-02-27T09:55:41.337Z,1.23
2023-02-27T09:58:24.257Z,1.20
2023-02-27T10:00:59.023Z,1.57
2023-02-27T10:03:47.170Z,2.23
2023-02-27T10:06:26.174Z,1.10
2023-02-27T10:09:08.879Z,1.60
2023-02-27T10:11:47.666Z,2.83
2023-02-27T10:14:27.263Z,1.50
2023-02-27T10:16:57.850Z,1.67
2023-02-27T10:19:35.269Z,1.20
2023-02-27T10:22:10.215Z,2.97
2023-02-27T10:24:43.202Z,1.53
2023-02-27T10:27:20.196Z,2.50
2023-02-27T10:29:48.591Z,3.80
2023-02-27T10:32:21.299Z,1.67
2023-02-27T10:34:53.595Z,1.30
2023-02-27T10:37:28.235Z,2.00
2023-02-27T10:39:58.617Z,1.67
2023-02-27T10:42:58.129Z,2.37
2023-02-27T10:45:32.242Z,2.17
2023-02-27T10:48:02.180Z,2.00
2023-02-27T10:51:26.765Z,2.03
2023-02-27T10:54:25.225Z,1.30
2023-02-27T10:56:56.976Z,8.17
2023-02-27T10:59:30.218Z,4.50
2023-02-27T11:02:02.866Z,4.07
2023-02-27T11:04:34.926Z,4.73
2023-02-27T11:07:11.532Z,2.80
2023-02-27T11:09:44.246Z,1.73
2023-02-27T11:12:25.056Z,2.77
2023-02-27T11:14:55.505Z,5.43
2023-02-27T11:17:27.367Z,1.53
2023-02-27T11:20:01.710Z,4.20
2023-02-27T11:22:36.230Z,5.67
2023-02-27T11:25:22.257Z,1.40
2023-02-27T11:27:53.519Z,4.47
2023-02-27T11:30:26.979Z,5.33
2023-02-27T11:32:58.236Z,3.30
2023-02-27T11:35:31.455Z,1.97
2023-02-27T11:38:05.656Z,1.40
2023-02-27T11:40:36.218Z,2.83
2023-02-27T11:43:06.579Z,2.27
2023-02-27T11:46:04.342Z,2.53
2023-02-27T11:48:30.545Z,2.50
2023-02-27T11:51:19.349Z,2.43
2023-02-27T11:54:20.005Z,3.30
2023-02-27T11:56:52.515Z,2.87
2023-02-27T11:59:34.253Z,1.67
2023-02-27T12:02:10.943Z,2.27
2023-02-27T12:04:48.656Z,1.43
2023-02-27T12:07:22.991Z,1.40
2023-02-27T12:10:03.344Z,3.27
2023-02-27T12:12:41.187Z,1.57
2023-02-27T12:15:21.261Z,3.87
2023-02-27T12:17:55.231Z,1.90
2023-02-27T12:20:30.228Z,6.37
2023-02-27T12:22:58.419Z,3.87
2023-02-27T12:25:39.291Z,3.40
2023-02-27T12:28:25.190Z,3.73
2023-02-27T12:31:05.504Z,2.73
2023-02-27T12:33:40.735Z,1.63
2023-02-27T12:36:13.949Z,3.50
2023-02-27T12:38:42.789Z,1.90
2023-02-27T12:41:31.275Z,3.07
2023-02-27T12:44:21.934Z,3.60
2023-02-27T12:46:59.293Z,3.03
2023-02-27T12:49:43.255Z,1.83
2023-02-27T12:52:25.244Z,1.83
2023-02-27T12:55:03.308Z,1.83
2023-02-27T12:57:53.974Z,2.00
2023-02-27T13:00:26.542Z,1.70
2023-02-27T13:03:01.776Z,2.50
2023-02-27T13:05:44.381Z,24.87
2023-02-27T13:08:49.281Z,9.67
2023-02-27T13:11:34.257Z,2.80
2023-02-27T13:14:13.003Z,3.47
2023-02-27T13:16:45.225Z,2.40
2023-02-27T13:19:17.278Z,1.87
2023-02-27T13:21:55.785Z,2.00
2023-02-27T13:24:29.599Z,3.23
2023-02-27T13:27:06.036Z,4.37
2023-02-27T13:29:42.088Z,3.67
2023-02-27T13:32:32.638Z,3.83
2023-02-27T13:35:14.297Z,2.77
2023-02-27T13:37:53.268Z,4.47
2023-02-27T13:40:31.126Z,2.37
2023-02-27T13:43:02.008Z,3.70
2023-02-27T13:45:57.006Z,13.47
2023-02-27T13:48:49.376Z,5.93
2023-02-27T13:51:56.576Z,1.80
2023-02-27T13:54:38.334Z,2.00
2023-02-27T13:57:24.346Z,1.83
2023-02-27T14:00:09.157Z,2.93
2023-02-27T14:02:59.256Z,3.40
2023-02-27T14:05:38.480Z,1.80
2023-02-27T14:08:15.072Z,2.03
2023-02-27T14:10:56.103Z,20.50
2023-02-27T14:13:59.689Z,6.27
2023-02-27T14:16:58.322Z,3.23
2023-02-27T14:20:00.107Z,2.30
2023-02-27T14:23:00.776Z,1.73
2023-02-27T14:25:35.934Z,3.37
2023-02-27T14:28:05.202Z,2.27
2023-02-27T14:30:40.689Z,14.23
2023-02-27T14:33:37.558Z,5.53
2023-02-27T14:36:17.279Z,2.17
2023-02-27T14:38:50.694Z,2.00
2023-02-27T14:41:36.577Z,1.97
2023-02-27T14:44:05.571Z,5.17
2023-02-27T14:46:38.419Z,7.30
2023-02-27T14:49:20.845Z,4.50
2023-02-27T14:51:52.306Z,3.77
2023-02-27T14:54:23.385Z,2.80
2023-02-27T14:56:58.252Z,2.97
2023-02-27T14:59:28.337Z,4.93
2023-02-27T15:01:59.225Z,7.90
2023-02-27T15:04:31.420Z,5.43
2023-02-27T15:07:02.336Z,3.40
2023-02-27T15:09:36.034Z,3.33
2023-02-27T15:12:06.023Z,3.97
2023-02-27T15:14:38.370Z,2.97
2023-02-27T15:17:16.868Z,2.40
2023-02-27T15:19:49.467Z,2.10
2023-02-27T15:22:36.077Z,2.47
2023-02-27T15:25:08.406Z,2.57
2023-02-27T15:27:38.231Z,2.80
2023-02-27T15:30:21.337Z,2.77
2023-02-27T15:32:51.129Z,2.87
2023-02-27T15:35:29.075Z,4.83
2023-02-27T15:38:01.051Z,5.30
2023-02-27T15:40:34.642Z,3.83
2023-02-27T15:43:03.252Z,5.07
2023-02-27T15:45:34.390Z,6.00
2023-02-27T15:48:03.290Z,6.37
2023-02-27T15:50:35.458Z,4.87
2023-02-27T15:53:13.452Z,3.00
2023-02-27T15:55:47.837Z,4.00
2023-02-27T15:58:24.428Z,5.77
2023-02-27T16:01:00.731Z,3.63
2023-02-27T16:03:33.274Z,7.77
2023-02-27T16:06:02.400Z,5.23
2023-02-27T16:08:32.979Z,6.73
2023-02-27T16:11:02.417Z,4.50
2023-02-27T16:13:38.701Z,9.33
2023-02-27T16:16:22.759Z,3.23
2023-02-27T16:18:52.770Z,6.57
2023-02-27T16:21:25.539Z,8.33
2023-02-27T16:23:56.333Z,4.70
2023-02-27T16:26:30.786Z,3.97
2023-02-27T16:29:02.684Z,4.33
2023-02-27T16:31:34.072Z,7.37
2023-02-27T16:34:17.239Z,5.33
2023-02-27T16:36:55.190Z,5.87
2023-02-27T16:39:24.885Z,6.07
2023-02-27T16:41:55.329Z,4.27
2023-02-27T16:44:24.457Z,5.37
2023-02-27T16:46:53.353Z,5.00
2023-02-27T16:49:28.515Z,4.83
2023-02-27T16:51:57.592Z,5.80
2023-02-27T16:54:27.145Z,6.33
2023-02-27T16:56:55.518Z,5.23
2023-02-27T16:59:33.414Z,4.80
2023-02-27T17:02:03.238Z,6.80
2023-02-27T17:04:31.912Z,6.07
2023-02-27T17:07:04.106Z,6.47
2023-02-27T17:09:35.246Z,5.80
2023-02-27T17:12:03.513Z,7.53
2023-02-27T17:14:31.931Z,5.97
2023-02-27T17:17:06.256Z,6.40
2023-02-27T17:19:34.830Z,5.00
2023-02-27T17:22:03.223Z,3.73
2023-02-27T17:24:32.286Z,5.93
2023-02-27T17:27:01.948Z,5.00
2023-02-27T17:29:30.565Z,7.00
2023-02-27T17:32:01.381Z,7.73
2023-02-27T17:34:30.403Z,6.47
2023-02-27T17:36:58.601Z,8.53
2023-02-27T17:39:27.033Z,26.87
2023-02-27T17:42:02.131Z,14.10
2023-02-27T17:44:31.781Z,7.80
2023-02-27T17:47:00.073Z,6.03
2023-02-27T17:49:28.328Z,6.47
2023-02-27T17:51:58.595Z,8.63
2023-02-27T17:54:27.201Z,8.97
2023-02-27T17:56:55.361Z,6.60
2023-02-27T17:59:23.502Z,7.23
2023-02-27T18:01:55.399Z,7.17
2023-02-27T18:04:24.315Z,8.27
2023-02-27T18:06:54.087Z,8.50
2023-02-27T18:09:25.224Z,7.80
2023-02-27T18:11:53.429Z,32.07
2023-02-27T18:14:21.589Z,10.07
2023-02-27T18:16:49.819Z,9.10
2023-02-27T18:19:22.071Z,8.73
2023-02-27T18:21:53.343Z,7.40
2023-02-27T18:24:21.565Z,6.70
2023-02-27T18:26:49.829Z,6.90
2023-02-27T18:29:18.227Z,9.40
2023-02-27T18:31:50.236Z,9.43
2023-02-27T18:34:23.771Z,9.97
2023-02-27T18:36:52.988Z,7.80
2023-02-27T18:39:22.658Z,7.73
2023-02-27T18:41:50.868Z,8.23
2023-02-27T18:44:22.203Z,8.27
2023-02-27T18:46:50.418Z,7.77
2023-02-27T18:49:18.714Z,9.37
2023-02-27T18:51:48.901Z,9.00
2023-02-27T18:54:18.385Z,8.00
2023-02-27T18:56:48.550Z,8.93
2023-02-27T18:59:17.501Z,7.23
2023-02-27T19:01:45.684Z,6.37
2023-02-27T19:04:13.902Z,8.53
2023-02-27T19:06:43.110Z,9.33
2023-02-27T19:09:16.114Z,12.53
2023-02-27T19:11:47.433Z,9.97
2023-02-27T19:14:17.020Z,8.73
2023-02-27T19:16:46.202Z,7.63
2023-02-27T19:19:14.420Z,8.80
2023-02-27T19:21:42.577Z,9.37
2023-02-27T19:24:13.509Z,8.13
2023-02-27T19:26:42.136Z,10.53
2023-02-27T19:29:10.291Z,8.17
2023-02-27T19:31:38.655Z,12.30
2023-02-27T19:34:07.129Z,10.07
2023-02-27T19:36:35.739Z,9.97
2023-02-27T19:39:05.480Z,9.60
2023-02-27T19:41:36.261Z,11.87
2023-02-27T19:44:04.693Z,12.10
2023-02-27T19:46:39.704Z,32.73
2023-02-27T19:49:12.166Z,16.67
2023-02-27T19:51:41.525Z,13.03
2023-02-27T19:54:13.505Z,12.30
2023-02-27T19:56:43.826Z,11.07
2023-02-27T19:59:13.196Z,10.27
2023-02-27T20:01:41.629Z,10.77
2023-02-27T20:04:14.600Z,10.10
2023-02-27T20:06:44.009Z,10.50
2023-02-27T20:09:14.525Z,11.83
2023-02-27T20:11:44.683Z,13.47
2023-02-27T20:14:13.953Z,13.20
2023-02-27T20:16:43.071Z,13.50
2023-02-27T20:19:14.524Z,15.90
2023-02-27T20:21:43.360Z,13.80
2023-02-27T20:24:12.708Z,14.93
2023-02-27T20:26:42.439Z,15.17
2023-02-27T20:29:14.362Z,15.00
2023-02-27T20:31:45.854Z,15.13
2023-02-27T20:34:15.881Z,13.33
2023-02-27T20:36:45.198Z,17.10
2023-02-27T20:39:13.895Z,12.60
2023-02-27T20:41:42.515Z,12.27
2023-02-27T20:44:13.328Z,13.23
2023-02-27T20:46:47.614Z,43.27
2023-02-27T20:49:19.558Z,44.00
2023-02-27T20:51:47.815Z,28.80
2023-02-27T20:54:20.525Z,19.03
2023-02-27T20:56:51.926Z,30.80
2023-02-27T20:59:23.453Z,33.27
2023-02-27T21:01:55.324Z,36.10
2023-02-27T21:04:26.132Z,34.93
2023-02-27T21:06:55.887Z,32.50
2023-02-27T21:09:24.138Z,35.53
2023-02-27T21:11:52.258Z,40.73
2023-02-27T21:14:21.987Z,38.97
2023-02-27T21:16:50.140Z,38.27
2023-02-27T21:19:18.356Z,39.97
2023-02-27T21:21:46.504Z,37.27
2023-02-27T21:24:16.411Z,36.77
2023-02-27T21:26:44.928Z,40.10
2023-02-27T21:29:15.283Z,41.83
2023-02-27T21:31:49.459Z,37.83
2023-02-27T21:34:19.881Z,36.40
2023-02-27T21:36:49.052Z,45.30
2023-02-27T21:39:18.954Z,42.90
2023-02-27T21:41:47.247Z,37.77
2023-02-27T21:44:17.831Z,36.13
2023-02-27T21:46:48.109Z,43.37
2023-02-27T21:49:18.002Z,43.50
2023-02-27T21:51:46.546Z,39.57
2023-02-27T21:54:15.369Z,44.70
2023-02-27T21:56:48.669Z,47.27
2023-02-27T21:59:17.973Z,43.83
2023-02-27T22:01:49.483Z,46.37
2023-02-27T22:04:18.644Z,48.70
2023-02-27T22:06:47.427Z,41.70
2023-02-27T22:09:15.849Z,46.03
2023-02-27T22:11:44.567Z,50.97
2023-02-27T22:14:13.445Z,47.53
2023-02-27T22:16:41.786Z,49.00
2023-02-27T22:19:19.944Z,48.93
2023-02-27T22:21:48.636Z,51.33
2023-02-27T22:24:17.248Z,48.33
2023-02-27T22:26:45.913Z,49.23
2023-02-27T22:29:14.208Z,51.67
2023-02-27T22:31:44.532Z,47.33
2023-02-27T22:34:18.147Z,45.87
2023-02-27T22:36:48.678Z,45.33
2023-02-27T22:39:19.706Z,47.10
2023-02-27T22:41:48.461Z,44.67
2023-02-27T22:44:17.589Z,50.20
2023-02-27T22:46:48.128Z,50.27
2023-02-27T22:49:20.460Z,49.43
2023-02-27T22:51:51.123Z,45.40
2023-02-27T22:54:20.705Z,43.97
2023-02-27T22:56:51.394Z,49.43
2023-02-27T22:59:19.662Z,52.33
2023-02-27T23:01:48.609Z,43.30
2023-02-27T23:04:18.825Z,43.77
2023-02-27T23:06:46.955Z,50.37
2023-02-27T23:09:19.558Z,43.73
2023-02-27T23:11:47.907Z,45.37
2023-02-27T23:14:18.253Z,43.57
2023-02-27T23:16:46.812Z,46.80
2023-02-27T23:19:20.612Z,54.17
2023-02-27T23:21:52.432Z,41.93
2023-02-27T23:24:21.281Z,45.00
2023-02-27T23:26:53.459Z,44.60
2023-02-27T23:29:22.061Z,45.37
2023-02-27T23:31:53.671Z,46.33
2023-02-27T23:34:23.691Z,40.73
2023-02-27T23:36:51.949Z,48.77
2023-02-27T23:39:21.164Z,50.03
2023-02-27T23:41:50.449Z,51.80
2023-02-27T23:44:36.079Z,46.80
2023-02-27T23:47:04.275Z,59.73
2023-02-27T23:49:33.987Z,50.40
2023-02-27T23:52:02.185Z,51.53
2023-02-27T23:54:32.260Z,55.07
2023-02-27T23:57:03.443Z,51.53
2023-02-27T23:59:31.598Z,51.23
